sensor_id;sensor_type;location;lat;lon;timestamp;P1;durP1;ratioP1;P2;durP2;ratioP2
65202;SDS011;51788;45.124;38.966;2022-07-06T00:01:51;22.15;;;9.10;;
65202;SDS011;51788;45.124;38.966;2022-07-06T00:04:17;27.20;;;9.18;;
65202;SDS011;51788;45.124;38.966;2022-07-06T00:06:44;26.88;;;9.10;;
65202;SDS011;51788;45.124;38.966;2022-07-06T00:09:10;17.85;;;9.18;;
65202;SDS011;51788;45.124;38.966;2022-07-06T00:11:36;18.02;;;8.52;;
65202;SDS011;51788;45.124;38.966;2022-07-06T00:14:02;18.85;;;8.63;;
65202;SDS011;51788;45.124;38.966;2022-07-06T00:16:28;26.85;;;9.15;;
65202;SDS011;51788;45.124;38.966;2022-07-06T00:18:54;11.23;;;8.35;;
65202;SDS011;51788;45.124;38.966;2022-07-06T00:21:20;12.07;;;8.25;;
65202;SDS011;51788;45.124;38.966;2022-07-06T00:23:46;21.40;;;9.73;;
65202;SDS011;51788;45.124;38.966;2022-07-06T00:26:12;15.10;;;8.45;;
65202;SDS011;51788;45.124;38.966;2022-07-06T00:28:39;17.08;;;8.88;;
65202;SDS011;51788;45.124;38.966;2022-07-06T00:31:05;22.73;;;10.43;;
65202;SDS011;51788;45.124;38.966;2022-07-06T00:33:31;50.33;;;24.25;;
65202;SDS011;51788;45.124;38.966;2022-07-06T00:35:58;67.03;;;38.80;;
65202;SDS011;51788;45.124;38.966;2022-07-06T00:38:24;128.35;;;70.18;;
65202;SDS011;51788;45.124;38.966;2022-07-06T00:40:50;92.05;;;49.47;;
65202;SDS011;51788;45.124;38.966;2022-07-06T00:43:16;67.18;;;39.20;;
65202;SDS011;51788;45.124;38.966;2022-07-06T00:45:42;69.65;;;38.97;;
65202;SDS011;51788;45.124;38.966;2022-07-06T00:48:09;31.08;;;21.08;;
65202;SDS011;51788;45.124;38.966;2022-07-06T00:50:35;20.67;;;11.70;;
65202;SDS011;51788;45.124;38.966;2022-07-06T00:53:02;25.05;;;16.85;;
65202;SDS011;51788;45.124;38.966;2022-07-06T00:55:31;28.83;;;16.10;;
65202;SDS011;51788;45.124;38.966;2022-07-06T00:57:59;28.27;;;14.25;;
65202;SDS011;51788;45.124;38.966;2022-07-06T01:00:27;23.65;;;12.20;;
65202;SDS011;51788;45.124;38.966;2022-07-06T01:02:53;40.17;;;20.95;;
65202;SDS011;51788;45.124;38.966;2022-07-06T01:05:20;41.20;;;22.45;;
65202;SDS011;51788;45.124;38.966;2022-07-06T01:07:47;34.15;;;23.10;;
65202;SDS011;51788;45.124;38.966;2022-07-06T01:10:15;39.15;;;19.17;;
65202;SDS011;51788;45.124;38.966;2022-07-06T01:12:43;41.65;;;24.23;;
65202;SDS011;51788;45.124;38.966;2022-07-06T01:15:12;52.30;;;31.58;;
65202;SDS011;51788;45.124;38.966;2022-07-06T01:17:41;49.17;;;27.77;;
65202;SDS011;51788;45.124;38.966;2022-07-06T01:20:09;59.83;;;28.27;;
65202;SDS011;51788;45.124;38.966;2022-07-06T01:22:37;54.58;;;31.08;;
65202;SDS011;51788;45.124;38.966;2022-07-06T01:25:05;31.42;;;13.80;;
65202;SDS011;51788;45.124;38.966;2022-07-06T01:27:32;26.00;;;11.88;;
65202;SDS011;51788;45.124;38.966;2022-07-06T01:30:06;20.83;;;10.73;;
65202;SDS011;51788;45.124;38.966;2022-07-06T01:32:37;33.10;;;11.43;;
65202;SDS011;51788;45.124;38.966;2022-07-06T01:35:07;18.27;;;9.88;;
65202;SDS011;51788;45.124;38.966;2022-07-06T01:37:35;10.38;;;9.23;;
65202;SDS011;51788;45.124;38.966;2022-07-06T01:40:05;22.30;;;8.15;;
65202;SDS011;51788;45.124;38.966;2022-07-06T01:42:32;15.13;;;7.78;;
65202;SDS011;51788;45.124;38.966;2022-07-06T01:44:59;15.68;;;8.30;;
65202;SDS011;51788;45.124;38.966;2022-07-06T01:47:26;20.27;;;7.95;;
65202;SDS011;51788;45.124;38.966;2022-07-06T01:49:52;21.08;;;7.22;;
65202;SDS011;51788;45.124;38.966;2022-07-06T01:52:20;18.52;;;7.90;;
65202;SDS011;51788;45.124;38.966;2022-07-06T01:54:46;13.32;;;7.82;;
65202;SDS011;51788;45.124;38.966;2022-07-06T01:57:12;14.88;;;7.15;;
65202;SDS011;51788;45.124;38.966;2022-07-06T01:59:38;15.40;;;8.20;;
65202;SDS011;51788;45.124;38.966;2022-07-06T02:02:04;14.50;;;7.43;;
65202;SDS011;51788;45.124;38.966;2022-07-06T02:04:31;18.15;;;8.27;;
65202;SDS011;51788;45.124;38.966;2022-07-06T02:06:57;9.45;;;7.63;;
65202;SDS011;51788;45.124;38.966;2022-07-06T02:09:24;18.80;;;7.20;;
65202;SDS011;51788;45.124;38.966;2022-07-06T02:11:50;20.73;;;7.13;;
65202;SDS011;51788;45.124;38.966;2022-07-06T02:14:16;16.17;;;7.07;;
65202;SDS011;51788;45.124;38.966;2022-07-06T02:16:42;19.13;;;7.18;;
65202;SDS011;51788;45.124;38.966;2022-07-06T02:19:08;22.77;;;7.30;;
65202;SDS011;51788;45.124;38.966;2022-07-06T02:21:34;7.85;;;7.00;;
65202;SDS011;51788;45.124;38.966;2022-07-06T02:24:00;12.70;;;6.97;;
65202;SDS011;51788;45.124;38.966;2022-07-06T02:26:28;10.10;;;7.43;;
65202;SDS011;51788;45.124;38.966;2022-07-06T02:28:54;15.70;;;7.32;;
65202;SDS011;51788;45.124;38.966;2022-07-06T02:31:21;22.90;;;7.68;;
65202;SDS011;51788;45.124;38.966;2022-07-06T02:33:48;18.63;;;7.60;;
65202;SDS011;51788;45.124;38.966;2022-07-06T02:36:14;30.05;;;7.65;;
65202;SDS011;51788;45.124;38.966;2022-07-06T02:38:42;21.52;;;6.82;;
65202;SDS011;51788;45.124;38.966;2022-07-06T02:41:08;28.95;;;7.25;;
65202;SDS011;51788;45.124;38.966;2022-07-06T02:43:34;9.07;;;6.10;;
65202;SDS011;51788;45.124;38.966;2022-07-06T02:46:00;18.73;;;6.63;;
65202;SDS011;51788;45.124;38.966;2022-07-06T02:48:27;9.25;;;5.97;;
65202;SDS011;51788;45.124;38.966;2022-07-06T02:50:53;15.77;;;7.00;;
65202;SDS011;51788;45.124;38.966;2022-07-06T02:53:19;22.70;;;7.10;;
65202;SDS011;51788;45.124;38.966;2022-07-06T02:55:48;15.20;;;7.32;;
65202;SDS011;51788;45.124;38.966;2022-07-06T02:58:14;16.38;;;6.70;;
65202;SDS011;51788;45.124;38.966;2022-07-06T03:00:41;10.43;;;6.70;;
65202;SDS011;51788;45.124;38.966;2022-07-06T03:03:08;14.80;;;6.28;;
65202;SDS011;51788;45.124;38.966;2022-07-06T03:05:36;20.20;;;7.03;;
65202;SDS011;51788;45.124;38.966;2022-07-06T03:08:02;14.48;;;6.57;;
65202;SDS011;51788;45.124;38.966;2022-07-06T03:10:29;12.95;;;6.03;;
65202;SDS011;51788;45.124;38.966;2022-07-06T03:12:56;11.13;;;5.85;;
65202;SDS011;51788;45.124;38.966;2022-07-06T03:15:22;11.80;;;6.45;;
65202;SDS011;51788;45.124;38.966;2022-07-06T03:17:48;13.48;;;6.60;;
65202;SDS011;51788;45.124;38.966;2022-07-06T03:20:15;16.30;;;6.35;;
65202;SDS011;51788;45.124;38.966;2022-07-06T03:22:41;16.15;;;6.78;;
65202;SDS011;51788;45.124;38.966;2022-07-06T03:25:09;14.82;;;7.13;;
65202;SDS011;51788;45.124;38.966;2022-07-06T03:27:38;14.93;;;6.40;;
65202;SDS011;51788;45.124;38.966;2022-07-06T03:30:04;13.45;;;6.47;;
65202;SDS011;51788;45.124;38.966;2022-07-06T03:32:33;28.75;;;6.53;;
65202;SDS011;51788;45.124;38.966;2022-07-06T03:35:01;18.20;;;6.78;;
65202;SDS011;51788;45.124;38.966;2022-07-06T03:37:27;17.00;;;6.60;;
65202;SDS011;51788;45.124;38.966;2022-07-06T03:39:54;16.38;;;5.97;;
65202;SDS011;51788;45.124;38.966;2022-07-06T03:42:19;17.95;;;6.65;;
65202;SDS011;51788;45.124;38.966;2022-07-06T03:44:45;18.08;;;7.18;;
65202;SDS011;51788;45.124;38.966;2022-07-06T03:47:12;18.60;;;6.35;;
65202;SDS011;51788;45.124;38.966;2022-07-06T03:49:38;11.98;;;6.20;;
65202;SDS011;51788;45.124;38.966;2022-07-06T03:52:07;33.35;;;7.18;;
65202;SDS011;51788;45.124;38.966;2022-07-06T03:54:40;31.23;;;7.85;;
65202;SDS011;51788;45.124;38.966;2022-07-06T03:57:08;17.73;;;5.82;;
65202;SDS011;51788;45.124;38.966;2022-07-06T03:59:34;17.80;;;5.95;;
65202;SDS011;51788;45.124;38.966;2022-07-06T04:02:00;18.05;;;5.38;;
65202;SDS011;51788;45.124;38.966;2022-07-06T04:04:26;25.08;;;6.43;;
65202;SDS011;51788;45.124;38.966;2022-07-06T04:06:53;21.45;;;5.93;;
65202;SDS011;51788;45.124;38.966;2022-07-06T04:09:19;13.20;;;5.07;;
65202;SDS011;51788;45.124;38.966;2022-07-06T04:11:47;21.63;;;5.85;;
65202;SDS011;51788;45.124;38.966;2022-07-06T04:14:13;21.00;;;5.68;;
65202;SDS011;51788;45.124;38.966;2022-07-06T04:16:39;22.83;;;5.65;;
65202;SDS011;51788;45.124;38.966;2022-07-06T04:19:06;9.40;;;5.70;;
65202;SDS011;51788;45.124;38.966;2022-07-06T04:21:34;22.92;;;5.88;;
65202;SDS011;51788;45.124;38.966;2022-07-06T04:24:00;20.42;;;5.43;;
65202;SDS011;51788;45.124;38.966;2022-07-06T04:26:27;23.42;;;7.30;;
65202;SDS011;51788;45.124;38.966;2022-07-06T04:28:55;15.40;;;5.57;;
65202;SDS011;51788;45.124;38.966;2022-07-06T04:31:23;17.48;;;5.93;;
65202;SDS011;51788;45.124;38.966;2022-07-06T04:33:50;22.73;;;6.18;;
65202;SDS011;51788;45.124;38.966;2022-07-06T04:36:16;15.35;;;5.63;;
65202;SDS011;51788;45.124;38.966;2022-07-06T04:38:44;17.02;;;5.90;;
65202;SDS011;51788;45.124;38.966;2022-07-06T04:41:14;16.52;;;6.25;;
65202;SDS011;51788;45.124;38.966;2022-07-06T04:43:40;28.15;;;6.55;;
65202;SDS011;51788;45.124;38.966;2022-07-06T04:46:09;22.48;;;6.20;;
65202;SDS011;51788;45.124;38.966;2022-07-06T04:48:38;78.20;;;10.25;;
65202;SDS011;51788;45.124;38.966;2022-07-06T04:51:07;23.23;;;6.50;;
65202;SDS011;51788;45.124;38.966;2022-07-06T04:53:34;19.95;;;7.00;;
65202;SDS011;51788;45.124;38.966;2022-07-06T04:56:00;13.75;;;5.22;;
65202;SDS011;51788;45.124;38.966;2022-07-06T04:58:27;27.92;;;5.15;;
65202;SDS011;51788;45.124;38.966;2022-07-06T05:00:53;18.13;;;5.18;;
65202;SDS011;51788;45.124;38.966;2022-07-06T05:03:20;25.17;;;5.45;;
65202;SDS011;51788;45.124;38.966;2022-07-06T05:05:46;19.45;;;5.95;;
65202;SDS011;51788;45.124;38.966;2022-07-06T05:08:13;13.00;;;5.30;;
65202;SDS011;51788;45.124;38.966;2022-07-06T05:10:40;18.30;;;5.18;;
65202;SDS011;51788;45.124;38.966;2022-07-06T05:13:06;21.00;;;5.07;;
65202;SDS011;51788;45.124;38.966;2022-07-06T05:15:32;24.77;;;5.03;;
65202;SDS011;51788;45.124;38.966;2022-07-06T05:17:58;29.83;;;5.80;;
65202;SDS011;51788;45.124;38.966;2022-07-06T05:20:24;11.88;;;5.57;;
65202;SDS011;51788;45.124;38.966;2022-07-06T05:22:51;23.33;;;5.40;;
65202;SDS011;51788;45.124;38.966;2022-07-06T05:25:21;19.77;;;5.78;;
65202;SDS011;51788;45.124;38.966;2022-07-06T05:27:48;36.70;;;6.95;;
65202;SDS011;51788;45.124;38.966;2022-07-06T05:30:14;11.88;;;5.45;;
65202;SDS011;51788;45.124;38.966;2022-07-06T05:32:41;20.38;;;5.90;;
65202;SDS011;51788;45.124;38.966;2022-07-06T05:35:08;55.90;;;8.35;;
65202;SDS011;51788;45.124;38.966;2022-07-06T05:37:34;26.50;;;5.90;;
65202;SDS011;51788;45.124;38.966;2022-07-06T05:40:00;11.23;;;4.57;;
65202;SDS011;51788;45.124;38.966;2022-07-06T05:42:27;14.98;;;4.70;;
65202;SDS011;51788;45.124;38.966;2022-07-06T05:44:56;24.30;;;5.47;;
65202;SDS011;51788;45.124;38.966;2022-07-06T05:47:25;21.40;;;4.95;;
65202;SDS011;51788;45.124;38.966;2022-07-06T05:50:10;12.93;;;4.30;;
65202;SDS011;51788;45.124;38.966;2022-07-06T05:52:56;13.50;;;4.82;;
65202;SDS011;51788;45.124;38.966;2022-07-06T05:55:23;19.10;;;6.15;;
65202;SDS011;51788;45.124;38.966;2022-07-06T05:57:50;15.48;;;4.57;;
65202;SDS011;51788;45.124;38.966;2022-07-06T06:00:20;32.78;;;5.20;;
65202;SDS011;51788;45.124;38.966;2022-07-06T06:02:51;16.75;;;4.70;;
65202;SDS011;51788;45.124;38.966;2022-07-06T06:05:18;23.77;;;4.53;;
65202;SDS011;51788;45.124;38.966;2022-07-06T06:07:47;27.38;;;4.25;;
65202;SDS011;51788;45.124;38.966;2022-07-06T06:10:14;21.77;;;4.38;;
65202;SDS011;51788;45.124;38.966;2022-07-06T06:12:41;17.45;;;4.53;;
65202;SDS011;51788;45.124;38.966;2022-07-06T06:15:08;18.95;;;4.63;;
65202;SDS011;51788;45.124;38.966;2022-07-06T06:17:35;13.15;;;3.75;;
65202;SDS011;51788;45.124;38.966;2022-07-06T06:20:02;12.23;;;4.85;;
65202;SDS011;51788;45.124;38.966;2022-07-06T06:25:19;24.40;;;4.07;;
65202;SDS011;51788;45.124;38.966;2022-07-06T06:27:47;22.48;;;4.35;;
65202;SDS011;51788;45.124;38.966;2022-07-06T06:30:13;13.57;;;3.95;;
65202;SDS011;51788;45.124;38.966;2022-07-06T06:32:39;29.60;;;4.60;;
65202;SDS011;51788;45.124;38.966;2022-07-06T06:35:06;18.15;;;3.65;;
65202;SDS011;51788;45.124;38.966;2022-07-06T06:37:32;9.43;;;3.58;;
65202;SDS011;51788;45.124;38.966;2022-07-06T06:39:59;12.57;;;3.30;;
65202;SDS011;51788;45.124;38.966;2022-07-06T06:42:26;31.05;;;4.57;;
65202;SDS011;51788;45.124;38.966;2022-07-06T06:44:52;10.35;;;2.65;;
65202;SDS011;51788;45.124;38.966;2022-07-06T06:47:18;26.58;;;3.58;;
65202;SDS011;51788;45.124;38.966;2022-07-06T06:49:45;74.07;;;5.88;;
65202;SDS011;51788;45.124;38.966;2022-07-06T06:52:11;29.63;;;3.40;;
65202;SDS011;51788;45.124;38.966;2022-07-06T06:54:37;9.25;;;3.20;;
65202;SDS011;51788;45.124;38.966;2022-07-06T06:57:03;23.13;;;4.45;;
65202;SDS011;51788;45.124;38.966;2022-07-06T06:59:29;22.48;;;3.33;;
65202;SDS011;51788;45.124;38.966;2022-07-06T07:01:55;11.60;;;3.15;;
65202;SDS011;51788;45.124;38.966;2022-07-06T07:04:21;12.70;;;3.13;;
65202;SDS011;51788;45.124;38.966;2022-07-06T07:06:47;27.42;;;3.22;;
65202;SDS011;51788;45.124;38.966;2022-07-06T07:09:13;32.67;;;3.55;;
65202;SDS011;51788;45.124;38.966;2022-07-06T07:11:39;15.40;;;3.30;;
65202;SDS011;51788;45.124;38.966;2022-07-06T07:14:05;17.08;;;3.03;;
65202;SDS011;51788;45.124;38.966;2022-07-06T07:16:31;23.83;;;3.30;;
65202;SDS011;51788;45.124;38.966;2022-07-06T07:18:57;25.85;;;3.35;;
65202;SDS011;51788;45.124;38.966;2022-07-06T07:21:23;10.02;;;3.28;;
65202;SDS011;51788;45.124;38.966;2022-07-06T07:23:49;19.00;;;5.13;;
65202;SDS011;51788;45.124;38.966;2022-07-06T07:26:15;13.35;;;3.35;;
65202;SDS011;51788;45.124;38.966;2022-07-06T07:28:42;10.55;;;2.80;;
65202;SDS011;51788;45.124;38.966;2022-07-06T07:31:08;18.70;;;3.55;;
65202;SDS011;51788;45.124;38.966;2022-07-06T07:33:34;12.02;;;2.70;;
65202;SDS011;51788;45.124;38.966;2022-07-06T07:36:00;6.40;;;2.72;;
65202;SDS011;51788;45.124;38.966;2022-07-06T07:38:26;18.70;;;2.97;;
65202;SDS011;51788;45.124;38.966;2022-07-06T07:40:55;5.88;;;2.45;;
65202;SDS011;51788;45.124;38.966;2022-07-06T07:43:21;6.72;;;2.95;;
65202;SDS011;51788;45.124;38.966;2022-07-06T07:45:47;15.63;;;3.92;;
65202;SDS011;51788;45.124;38.966;2022-07-06T07:48:14;20.40;;;3.47;;
65202;SDS011;51788;45.124;38.966;2022-07-06T07:50:43;13.82;;;3.42;;
65202;SDS011;51788;45.124;38.966;2022-07-06T07:53:09;10.32;;;4.72;;
65202;SDS011;51788;45.124;38.966;2022-07-06T07:55:35;19.65;;;9.25;;
65202;SDS011;51788;45.124;38.966;2022-07-06T07:58:01;15.40;;;3.30;;
65202;SDS011;51788;45.124;38.966;2022-07-06T08:00:27;11.23;;;4.20;;
65202;SDS011;51788;45.124;38.966;2022-07-06T08:02:54;10.30;;;4.57;;
65202;SDS011;51788;45.124;38.966;2022-07-06T08:05:20;10.68;;;5.07;;
65202;SDS011;51788;45.124;38.966;2022-07-06T08:07:46;10.60;;;4.40;;
65202;SDS011;51788;45.124;38.966;2022-07-06T08:10:12;15.02;;;5.93;;
65202;SDS011;51788;45.124;38.966;2022-07-06T08:12:38;9.88;;;3.65;;
65202;SDS011;51788;45.124;38.966;2022-07-06T08:15:04;25.52;;;3.58;;
65202;SDS011;51788;45.124;38.966;2022-07-06T08:17:31;17.88;;;3.05;;
65202;SDS011;51788;45.124;38.966;2022-07-06T08:19:57;10.23;;;2.90;;
65202;SDS011;51788;45.124;38.966;2022-07-06T08:22:23;12.43;;;2.80;;
65202;SDS011;51788;45.124;38.966;2022-07-06T08:24:49;12.70;;;3.05;;
65202;SDS011;51788;45.124;38.966;2022-07-06T08:27:15;10.68;;;3.42;;
65202;SDS011;51788;45.124;38.966;2022-07-06T08:29:42;3.60;;;2.53;;
65202;SDS011;51788;45.124;38.966;2022-07-06T08:32:08;12.75;;;3.17;;
65202;SDS011;51788;45.124;38.966;2022-07-06T08:34:34;21.75;;;3.03;;
65202;SDS011;51788;45.124;38.966;2022-07-06T08:37:00;16.50;;;3.38;;
65202;SDS011;51788;45.124;38.966;2022-07-06T08:39:26;6.88;;;2.55;;
65202;SDS011;51788;45.124;38.966;2022-07-06T08:41:52;6.38;;;2.83;;
65202;SDS011;51788;45.124;38.966;2022-07-06T08:44:22;24.75;;;3.33;;
65202;SDS011;51788;45.124;38.966;2022-07-06T08:46:49;11.13;;;2.72;;
65202;SDS011;51788;45.124;38.966;2022-07-06T08:49:20;25.55;;;3.10;;
65202;SDS011;51788;45.124;38.966;2022-07-06T08:51:48;2.95;;;2.28;;
65202;SDS011;51788;45.124;38.966;2022-07-06T08:54:14;5.93;;;2.05;;
65202;SDS011;51788;45.124;38.966;2022-07-06T08:56:40;12.15;;;3.05;;
65202;SDS011;51788;45.124;38.966;2022-07-06T08:59:06;11.15;;;2.97;;
65202;SDS011;51788;45.124;38.966;2022-07-06T09:01:34;5.78;;;2.38;;
65202;SDS011;51788;45.124;38.966;2022-07-06T09:04:02;7.13;;;2.60;;
65202;SDS011;51788;45.124;38.966;2022-07-06T09:06:32;16.85;;;2.97;;
65202;SDS011;51788;45.124;38.966;2022-07-06T09:08:59;17.17;;;2.60;;
65202;SDS011;51788;45.124;38.966;2022-07-06T09:11:30;16.38;;;3.20;;
65202;SDS011;51788;45.124;38.966;2022-07-06T09:13:56;11.63;;;2.47;;
65202;SDS011;51788;45.124;38.966;2022-07-06T09:16:26;8.52;;;2.40;;
65202;SDS011;51788;45.124;38.966;2022-07-06T09:18:54;13.70;;;3.00;;
65202;SDS011;51788;45.124;38.966;2022-07-06T09:21:30;18.35;;;2.75;;
65202;SDS011;51788;45.124;38.966;2022-07-06T09:23:58;2.60;;;2.40;;
65202;SDS011;51788;45.124;38.966;2022-07-06T09:26:28;11.25;;;3.00;;
65202;SDS011;51788;45.124;38.966;2022-07-06T09:28:57;54.97;;;4.25;;
65202;SDS011;51788;45.124;38.966;2022-07-06T09:31:25;13.52;;;2.70;;
65202;SDS011;51788;45.124;38.966;2022-07-06T09:33:55;8.05;;;3.08;;
65202;SDS011;51788;45.124;38.966;2022-07-06T09:39:28;6.03;;;2.50;;
65202;SDS011;51788;45.124;38.966;2022-07-06T09:41:55;12.43;;;2.33;;
65202;SDS011;51788;45.124;38.966;2022-07-06T09:44:25;13.95;;;3.08;;
65202;SDS011;51788;45.124;38.966;2022-07-06T09:46:52;16.80;;;3.20;;
65202;SDS011;51788;45.124;38.966;2022-07-06T09:49:21;6.13;;;2.65;;
65202;SDS011;51788;45.124;38.966;2022-07-06T09:51:49;8.30;;;3.60;;
65202;SDS011;51788;45.124;38.966;2022-07-06T09:54:16;58.30;;;4.38;;
65202;SDS011;51788;45.124;38.966;2022-07-06T09:56:44;6.18;;;2.22;;
65202;SDS011;51788;45.124;38.966;2022-07-06T09:59:21;8.65;;;2.40;;
65202;SDS011;51788;45.124;38.966;2022-07-06T10:01:52;6.65;;;2.42;;
65202;SDS011;51788;45.124;38.966;2022-07-06T10:04:23;14.35;;;2.95;;
65202;SDS011;51788;45.124;38.966;2022-07-06T10:06:50;11.48;;;2.55;;
65202;SDS011;51788;45.124;38.966;2022-07-06T10:09:20;7.45;;;2.45;;
65202;SDS011;51788;45.124;38.966;2022-07-06T10:11:50;19.92;;;3.42;;
65202;SDS011;51788;45.124;38.966;2022-07-06T10:16:48;14.07;;;1.83;;
65202;SDS011;51788;45.124;38.966;2022-07-06T10:19:16;12.07;;;2.17;;
65202;SDS011;51788;45.124;38.966;2022-07-06T10:21:43;4.75;;;2.08;;
65202;SDS011;51788;45.124;38.966;2022-07-06T10:24:09;8.25;;;2.10;;
65202;SDS011;51788;45.124;38.966;2022-07-06T10:26:37;8.60;;;2.22;;
65202;SDS011;51788;45.124;38.966;2022-07-06T10:29:05;6.30;;;1.92;;
65202;SDS011;51788;45.124;38.966;2022-07-06T10:31:32;14.95;;;2.22;;
65202;SDS011;51788;45.124;38.966;2022-07-06T10:34:00;5.40;;;1.52;;
65202;SDS011;51788;45.124;38.966;2022-07-06T10:36:28;15.63;;;2.22;;
65202;SDS011;51788;45.124;38.966;2022-07-06T10:38:54;15.77;;;2.38;;
65202;SDS011;51788;45.124;38.966;2022-07-06T10:41:30;9.70;;;2.13;;
65202;SDS011;51788;45.124;38.966;2022-07-06T10:43:58;7.18;;;2.25;;
65202;SDS011;51788;45.124;38.966;2022-07-06T10:46:41;11.90;;;2.30;;
65202;SDS011;51788;45.124;38.966;2022-07-06T10:49:15;3.22;;;2.00;;
65202;SDS011;51788;45.124;38.966;2022-07-06T10:51:41;3.47;;;1.85;;
65202;SDS011;51788;45.124;38.966;2022-07-06T10:54:15;8.25;;;3.00;;
65202;SDS011;51788;45.124;38.966;2022-07-06T10:56:44;5.40;;;2.20;;
65202;SDS011;51788;45.124;38.966;2022-07-06T10:59:20;25.90;;;2.55;;
65202;SDS011;51788;45.124;38.966;2022-07-06T11:04:45;16.58;;;2.25;;
65202;SDS011;51788;45.124;38.966;2022-07-06T11:07:13;4.15;;;1.65;;
65202;SDS011;51788;45.124;38.966;2022-07-06T11:09:41;25.73;;;3.33;;
65202;SDS011;51788;45.124;38.966;2022-07-06T11:12:17;9.93;;;1.70;;
65202;SDS011;51788;45.124;38.966;2022-07-06T11:14:44;35.45;;;2.30;;
65202;SDS011;51788;45.124;38.966;2022-07-06T11:17:11;3.58;;;1.35;;
65202;SDS011;51788;45.124;38.966;2022-07-06T11:19:38;11.27;;;1.80;;
65202;SDS011;51788;45.124;38.966;2022-07-06T11:22:14;7.35;;;1.90;;
65202;SDS011;51788;45.124;38.966;2022-07-06T11:24:41;7.40;;;2.00;;
65202;SDS011;51788;45.124;38.966;2022-07-06T11:27:08;10.77;;;2.08;;
65202;SDS011;51788;45.124;38.966;2022-07-06T11:29:34;15.85;;;2.65;;
65202;SDS011;51788;45.124;38.966;2022-07-06T11:32:05;13.43;;;2.80;;
65202;SDS011;51788;45.124;38.966;2022-07-06T11:34:35;8.75;;;2.65;;
65202;SDS011;51788;45.124;38.966;2022-07-06T11:37:07;6.72;;;2.03;;
65202;SDS011;51788;45.124;38.966;2022-07-06T11:39:37;12.55;;;2.80;;
65202;SDS011;51788;45.124;38.966;2022-07-06T11:42:14;7.03;;;2.10;;
65202;SDS011;51788;45.124;38.966;2022-07-06T11:44:44;10.25;;;2.15;;
65202;SDS011;51788;45.124;38.966;2022-07-06T11:47:11;6.95;;;2.00;;
65202;SDS011;51788;45.124;38.966;2022-07-06T11:49:38;14.02;;;2.65;;
65202;SDS011;51788;45.124;38.966;2022-07-06T11:52:06;17.13;;;2.58;;
65202;SDS011;51788;45.124;38.966;2022-07-06T11:54:36;29.13;;;2.75;;
65202;SDS011;51788;45.124;38.966;2022-07-06T11:57:03;37.22;;;2.65;;
65202;SDS011;51788;45.124;38.966;2022-07-06T11:59:32;5.93;;;1.98;;
65202;SDS011;51788;45.124;38.966;2022-07-06T12:02:05;3.10;;;1.80;;
65202;SDS011;51788;45.124;38.966;2022-07-06T12:04:34;15.13;;;2.92;;
65202;SDS011;51788;45.124;38.966;2022-07-06T12:07:08;5.85;;;1.88;;
65202;SDS011;51788;45.124;38.966;2022-07-06T12:09:37;15.90;;;1.80;;
65202;SDS011;51788;45.124;38.966;2022-07-06T12:12:05;10.65;;;1.83;;
65202;SDS011;51788;45.124;38.966;2022-07-06T12:14:33;16.73;;;1.55;;
65202;SDS011;51788;45.124;38.966;2022-07-06T12:17:04;8.98;;;1.42;;
65202;SDS011;51788;45.124;38.966;2022-07-06T12:19:33;13.50;;;2.03;;
65202;SDS011;51788;45.124;38.966;2022-07-06T12:21:59;12.32;;;1.92;;
65202;SDS011;51788;45.124;38.966;2022-07-06T12:24:27;15.50;;;2.78;;
65202;SDS011;51788;45.124;38.966;2022-07-06T12:26:56;35.22;;;3.83;;
65202;SDS011;51788;45.124;38.966;2022-07-06T12:29:22;11.00;;;2.10;;
65202;SDS011;51788;45.124;38.966;2022-07-06T12:31:50;8.45;;;2.20;;
65202;SDS011;51788;45.124;38.966;2022-07-06T12:34:17;16.58;;;2.80;;
65202;SDS011;51788;45.124;38.966;2022-07-06T12:36:51;8.63;;;1.98;;
65202;SDS011;51788;45.124;38.966;2022-07-06T12:39:22;6.80;;;2.03;;
65202;SDS011;51788;45.124;38.966;2022-07-06T12:41:53;17.33;;;2.22;;
65202;SDS011;51788;45.124;38.966;2022-07-06T12:44:25;24.13;;;3.20;;
65202;SDS011;51788;45.124;38.966;2022-07-06T12:47:02;7.45;;;1.85;;
65202;SDS011;51788;45.124;38.966;2022-07-06T12:49:30;13.00;;;3.00;;
65202;SDS011;51788;45.124;38.966;2022-07-06T12:52:00;10.45;;;1.77;;
65202;SDS011;51788;45.124;38.966;2022-07-06T12:54:33;17.02;;;2.58;;
65202;SDS011;51788;45.124;38.966;2022-07-06T12:57:03;13.60;;;2.60;;
65202;SDS011;51788;45.124;38.966;2022-07-06T12:59:37;5.72;;;2.58;;
65202;SDS011;51788;45.124;38.966;2022-07-06T13:02:05;8.43;;;2.13;;
65202;SDS011;51788;45.124;38.966;2022-07-06T13:04:33;10.85;;;2.28;;
65202;SDS011;51788;45.124;38.966;2022-07-06T13:07:00;30.17;;;2.45;;
65202;SDS011;51788;45.124;38.966;2022-07-06T13:09:27;11.95;;;3.03;;
65202;SDS011;51788;45.124;38.966;2022-07-06T13:11:54;12.43;;;3.30;;
65202;SDS011;51788;45.124;38.966;2022-07-06T13:14:20;20.60;;;3.42;;
65202;SDS011;51788;45.124;38.966;2022-07-06T13:16:46;14.82;;;2.58;;
65202;SDS011;51788;45.124;38.966;2022-07-06T13:19:13;20.73;;;2.35;;
65202;SDS011;51788;45.124;38.966;2022-07-06T13:21:39;17.80;;;3.53;;
65202;SDS011;51788;45.124;38.966;2022-07-06T13:24:06;4.70;;;2.40;;
65202;SDS011;51788;45.124;38.966;2022-07-06T13:26:32;10.82;;;2.60;;
65202;SDS011;51788;45.124;38.966;2022-07-06T13:29:05;11.13;;;2.35;;
65202;SDS011;51788;45.124;38.966;2022-07-06T13:31:31;10.38;;;2.30;;
65202;SDS011;51788;45.124;38.966;2022-07-06T13:33:57;15.57;;;3.17;;
65202;SDS011;51788;45.124;38.966;2022-07-06T13:36:23;12.10;;;2.20;;
65202;SDS011;51788;45.124;38.966;2022-07-06T13:38:49;15.65;;;2.63;;
65202;SDS011;51788;45.124;38.966;2022-07-06T13:41:15;8.80;;;2.35;;
65202;SDS011;51788;45.124;38.966;2022-07-06T13:43:41;5.13;;;2.65;;
65202;SDS011;51788;45.124;38.966;2022-07-06T13:46:07;28.50;;;4.43;;
65202;SDS011;51788;45.124;38.966;2022-07-06T13:48:36;62.50;;;6.18;;
65202;SDS011;51788;45.124;38.966;2022-07-06T13:51:02;23.13;;;3.95;;
65202;SDS011;51788;45.124;38.966;2022-07-06T13:53:28;4.85;;;2.90;;
65202;SDS011;51788;45.124;38.966;2022-07-06T13:55:56;16.70;;;3.55;;
65202;SDS011;51788;45.124;38.966;2022-07-06T13:58:22;9.70;;;3.03;;
65202;SDS011;51788;45.124;38.966;2022-07-06T14:00:48;10.55;;;2.58;;
65202;SDS011;51788;45.124;38.966;2022-07-06T14:03:14;19.48;;;2.58;;
65202;SDS011;51788;45.124;38.966;2022-07-06T14:05:40;7.47;;;3.10;;
65202;SDS011;51788;45.124;38.966;2022-07-06T14:08:07;16.17;;;2.75;;
65202;SDS011;51788;45.124;38.966;2022-07-06T14:10:33;13.10;;;3.20;;
65202;SDS011;51788;45.124;38.966;2022-07-06T14:12:59;17.17;;;2.33;;
65202;SDS011;51788;45.124;38.966;2022-07-06T14:15:25;10.35;;;2.80;;
65202;SDS011;51788;45.124;38.966;2022-07-06T14:17:51;14.20;;;2.67;;
65202;SDS011;51788;45.124;38.966;2022-07-06T14:20:17;16.42;;;2.75;;
65202;SDS011;51788;45.124;38.966;2022-07-06T14:22:46;11.38;;;2.53;;
65202;SDS011;51788;45.124;38.966;2022-07-06T14:25:12;7.07;;;2.80;;
65202;SDS011;51788;45.124;38.966;2022-07-06T14:27:38;10.27;;;2.63;;
65202;SDS011;51788;45.124;38.966;2022-07-06T14:30:05;11.93;;;3.72;;
65202;SDS011;51788;45.124;38.966;2022-07-06T14:32:32;27.50;;;3.25;;
65202;SDS011;51788;45.124;38.966;2022-07-06T14:34:58;19.27;;;3.42;;
65202;SDS011;51788;45.124;38.966;2022-07-06T14:37:24;22.83;;;2.92;;